Time;durP1;ratioP1;P1;durP2;ratioP2;P2;SDS_P1;SDS_P2;PMS_P1;PMS_P2;Temp;Humidity;BMP_temperature;BMP_pressure;BME280_temperature;BME280_humidity;BME280_pressure;Samples;Min_cycle;Max_cycle;Signal;HPM_P1;HPM_P2
2022/09/01 00:01:43;;;;;;;5.47;4.43;;;24.50;48.40;;;;;;5110210;27;45353;-72
2022/09/01 00:04:12;;;;;;;5.97;4.30;;;24.50;48.60;;;;;;5110087;27;45288;-72
2022/09/01 00:06:39;;;;;;;4.55;4.15;;;24.50;48.60;;;;;;5110195;27;45420;-72
2022/09/01 00:09:07;;;;;;;5.50;4.20;;;24.50;48.60;;;;;;5109722;27;46805;-72
2022/09/01 00:11:34;;;;;;;4.70;4.15;;;24.50;48.50;;;;;;5109890;27;45192;-72
2022/09/01 00:14:01;;;;;;;5.53;4.30;;;24.40;48.60;;;;;;5109889;27;45189;-72
2022/09/01 00:16:30;;;;;;;5.70;4.40;;;24.50;48.70;;;;;;5110092;27;45244;-72
2022/09/01 00:18:57;;;;;;;4.60;4.20;;;24.50;48.70;;;;;;5111134;27;45439;-72
2022/09/01 00:21:25;;;;;;;4.55;4.07;;;24.50;48.70;;;;;;5146748;27;45303;-72
2022/09/01 00:23:52;;;;;;;4.57;3.90;;;24.40;48.70;;;;;;5149497;27;45226;-72
2022/09/01 00:26:19;;;;;;;4.05;3.65;;;24.40;48.50;;;;;;5151478;27;45161;-72
2022/09/01 00:28:45;;;;;;;4.68;4.18;;;24.40;48.80;;;;;;5151054;27;45365;-71
2022/09/01 00:31:13;;;;;;;5.78;4.22;;;24.40;48.70;;;;;;5136380;27;45295;-72
2022/09/01 00:33:41;;;;;;;4.65;4.25;;;24.40;48.70;;;;;;5130241;27;45245;-72
2022/09/01 00:36:08;;;;;;;4.28;3.88;;;24.40;48.70;;;;;;5130425;27;45174;-72
2022/09/01 00:38:35;;;;;;;3.80;3.42;;;24.40;49.20;;;;;;5143091;27;46739;-72
2022/09/01 00:41:02;;;;;;;4.10;3.75;;;24.40;48.70;;;;;;5150883;27;45328;-72
2022/09/01 00:43:37;;;;;;;4.32;3.92;;;24.40;48.60;;;;;;5150932;27;45297;-72
2022/09/01 00:46:04;;;;;;;4.80;3.88;;;24.30;48.70;;;;;;5151106;27;45331;-72
2022/09/01 00:48:31;;;;;;;4.63;4.13;;;24.30;48.70;;;;;;5149702;27;46378;-72
2022/09/01 00:50:59;;;;;;;4.13;3.78;;;24.30;48.70;;;;;;5150645;27;45229;-72
2022/09/01 00:53:26;;;;;;;5.80;3.80;;;24.30;48.50;;;;;;5150769;27;45378;-72
2022/09/01 00:55:53;;;;;;;3.95;3.65;;;24.30;48.60;;;;;;5150916;27;45363;-72
2022/09/01 00:58:20;;;;;;;3.85;3.45;;;24.30;48.70;;;;;;5150602;27;45215;-72
2022/09/01 01:00:47;;;;;;;4.10;3.80;;;24.30;48.60;;;;;;5150550;27;45279;-72
2022/09/01 01:03:14;;;;;;;5.10;3.80;;;24.30;48.70;;;;;;5150458;27;45231;-72
2022/09/01 01:05:46;;;;;;;4.22;3.63;;;24.30;48.70;;;;;;5150914;27;45332;-72
2022/09/01 01:08:18;;;;;;;4.32;3.92;;;24.30;48.60;;;;;;5150159;27;46639;-72
2022/09/01 01:10:45;;;;;;;4.25;3.65;;;24.30;48.70;;;;;;5150280;27;45222;-72
2022/09/01 01:13:14;;;;;;;4.18;3.80;;;24.30;49.30;;;;;;5150602;27;45175;-72
2022/09/01 01:15:42;;;;;;;3.67;3.25;;;24.30;48.70;;;;;;5150548;27;45279;-72
2022/09/01 01:18:09;;;;;;;3.63;3.33;;;24.20;48.70;;;;;;5150058;27;46653;-72
2022/09/01 01:23:25;;;;;;;3.47;3.17;;;24.20;48.50;;;;;;5147761;27;45259;-72
2022/09/01 01:25:55;;;;;;;4.10;3.70;;;24.20;48.70;;;;;;5150596;27;45408;-72
2022/09/01 01:28:26;;;;;;;5.05;3.50;;;24.20;48.70;;;;;;5149529;27;45278;-72
2022/09/01 01:30:54;;;;;;;4.47;3.47;;;24.20;48.70;;;;;;5149195;27;45356;-72
2022/09/01 01:33:23;;;;;;;3.60;3.30;;;24.20;48.70;;;;;;5150150;27;45176;-72
2022/09/01 01:35:50;;;;;;;3.90;3.50;;;24.10;48.60;;;;;;5150343;27;45360;-72
2022/09/01 01:38:21;;;;;;;5.47;3.70;;;24.10;48.60;;;;;;5138695;27;45483;-72
2022/09/01 01:40:48;;;;;;;3.60;3.30;;;24.10;48.70;;;;;;5129260;27;45239;-72
2022/09/01 01:43:18;;;;;;;3.53;3.22;;;24.10;48.70;;;;;;5129255;27;45314;-72
2022/09/01 01:45:45;;;;;;;3.83;3.47;;;24.10;48.70;;;;;;5129087;27;45628;-72
2022/09/01 01:48:12;;;;;;;3.53;3.22;;;24.10;48.70;;;;;;5128897;27;47584;-72
2022/09/01 01:50:39;;;;;;;3.90;3.60;;;24.10;48.70;;;;;;5129134;27;45206;-72
2022/09/01 01:53:07;;;;;;;4.05;3.45;;;24.10;48.70;;;;;;5129024;27;45307;-72
2022/09/01 01:55:34;;;;;;;4.82;3.75;;;24.10;48.70;;;;;;5129371;27;45302;-72
2022/09/01 01:58:01;;;;;;;3.70;3.40;;;24.00;48.60;;;;;;5128555;27;46393;-72
2022/09/01 02:00:31;;;;;;;3.80;3.50;;;24.00;48.80;;;;;;5128775;27;45180;-72
2022/09/01 02:02:58;;;;;;;3.55;3.25;;;24.00;48.70;;;;;;5128817;27;45288;-72
2022/09/01 02:05:26;;;;;;;5.20;3.55;;;24.00;48.70;;;;;;5128926;27;45122;-72
2022/09/01 02:07:58;;;;;;;3.47;3.17;;;24.00;48.80;;;;;;5128332;27;46334;-72
2022/09/01 02:10:25;;;;;;;3.50;3.20;;;24.00;48.70;;;;;;5128606;27;45205;-72
2022/09/01 02:12:52;;;;;;;4.47;3.42;;;24.00;48.70;;;;;;5128791;27;45163;-72
2022/09/01 02:15:19;;;;;;;3.75;3.45;;;23.90;48.60;;;;;;5128607;27;45246;-72
2022/09/01 02:17:48;;;;;;;3.50;3.20;;;23.90;48.70;;;;;;5128300;27;45349;-72
2022/09/01 02:20:15;;;;;;;3.30;3.00;;;23.90;48.70;;;;;;5115563;27;45202;-71
2022/09/01 02:22:43;;;;;;;4.20;3.53;;;23.90;48.60;;;;;;5108832;27;45178;-72
2022/09/01 02:25:10;;;;;;;3.72;3.42;;;23.90;48.80;;;;;;5108119;27;45273;-72
2022/09/01 02:27:38;;;;;;;3.53;3.22;;;23.90;48.90;;;;;;5107611;27;45293;-72
2022/09/01 02:30:09;;;;;;;3.80;3.40;;;23.90;48.80;;;;;;5111575;27;45286;-72
2022/09/01 02:32:37;;;;;;;3.45;3.15;;;23.90;48.80;;;;;;5128251;27;45304;-72
2022/09/01 02:35:08;;;;;;;3.58;3.22;;;23.90;48.80;;;;;;5128304;27;45514;-72
2022/09/01 02:37:36;;;;;;;3.28;3.05;;;23.80;48.80;;;;;;5127824;27;45538;-72
2022/09/01 02:40:03;;;;;;;4.20;3.00;;;23.80;48.80;;;;;;5128196;27;45311;-72
2022/09/01 02:42:31;;;;;;;3.42;3.13;;;23.80;48.80;;;;;;5128212;27;45284;-72
2022/09/01 02:44:58;;;;;;;3.33;3.13;;;23.80;48.70;;;;;;5128420;27;45399;-72
2022/09/01 02:47:26;;;;;;;3.58;3.13;;;23.80;48.80;;;;;;5127809;27;45715;-72
2022/09/01 02:49:53;;;;;;;4.00;3.10;;;23.80;48.80;;;;;;5128137;27;45292;-72
2022/09/01 02:52:21;;;;;;;3.60;3.30;;;23.70;48.80;;;;;;5128182;27;45193;-72
2022/09/01 02:54:49;;;;;;;3.40;3.20;;;23.70;48.70;;;;;;5128291;27;45477;-72
2022/09/01 02:57:16;;;;;;;4.78;3.42;;;23.70;48.80;;;;;;5128012;27;47963;-71
2022/09/01 02:59:44;;;;;;;3.67;2.88;;;23.70;48.80;;;;;;5127656;27;45391;-72
2022/09/01 03:02:11;;;;;;;4.88;2.90;;;23.70;48.90;;;;;;5128037;27;45236;-72
2022/09/01 03:04:38;;;;;;;3.38;3.08;;;23.70;48.80;;;;;;5128173;27;45403;-71
2022/09/01 03:07:05;;;;;;;3.33;2.90;;;23.70;48.90;;;;;;5127739;27;46354;-72
2022/09/01 03:09:33;;;;;;;4.18;3.47;;;23.70;48.90;;;;;;5127095;27;45322;-72
2022/09/01 03:12:00;;;;;;;3.35;3.00;;;23.60;49.40;;;;;;5127910;27;45185;-71
2022/09/01 03:14:28;;;;;;;3.58;3.25;;;23.60;48.80;;;;;;5131598;27;45188;-72
2022/09/01 03:16:56;;;;;;;3.35;3.05;;;23.60;48.90;;;;;;5131394;27;46660;-72
2022/09/01 03:19:23;;;;;;;3.42;3.13;;;23.60;48.90;;;;;;5126095;27;45225;-72
2022/09/01 03:21:49;;;;;;;3.58;3.28;;;23.60;48.90;;;;;;5111727;27;45250;-72
2022/09/01 03:24:17;;;;;;;3.55;3.25;;;23.60;48.90;;;;;;5131749;27;45241;-72
2022/09/01 03:26:46;;;;;;;4.00;3.60;;;23.60;48.90;;;;;;5131149;27;45475;-72
2022/09/01 03:29:14;;;;;;;4.70;3.13;;;23.50;49.00;;;;;;5131191;27;45259;-72
2022/09/01 03:31:41;;;;;;;3.63;3.20;;;23.50;48.80;;;;;;5131169;27;45205;-72
2022/09/01 03:34:09;;;;;;;3.85;3.25;;;23.50;48.90;;;;;;5131602;27;45157;-72
2022/09/01 03:36:36;;;;;;;3.63;3.17;;;23.50;48.90;;;;;;5131141;27;45324;-72
2022/09/01 03:39:03;;;;;;;3.10;2.83;;;23.50;48.80;;;;;;5165771;27;45285;-72
2022/09/01 03:41:30;;;;;;;3.88;3.17;;;23.50;48.90;;;;;;5173142;27;45252;-72
2022/09/01 03:43:58;;;;;;;2.85;2.65;;;23.50;48.90;;;;;;5173283;27;45233;-72
2022/09/01 03:46:26;;;;;;;4.10;3.05;;;23.50;48.90;;;;;;5172999;27;46513;-72
2022/09/01 03:48:54;;;;;;;3.30;3.00;;;23.50;48.90;;;;;;5172680;27;45302;-72
2022/09/01 03:51:21;;;;;;;3.08;2.88;;;23.50;49.00;;;;;;5172930;27;45198;-71
2022/09/01 03:53:48;;;;;;;4.00;3.20;;;23.40;48.90;;;;;;5173246;27;45182;-72
2022/09/01 03:56:15;;;;;;;3.20;2.90;;;23.40;49.00;;;;;;5172607;27;45186;-70
2022/09/01 03:58:45;;;;;;;2.83;2.63;;;23.40;49.10;;;;;;5171887;27;45255;-71
2022/09/01 04:01:14;;;;;;;3.60;3.30;;;23.40;49.00;;;;;;5172979;27;45216;-72
2022/09/01 04:03:43;;;;;;;3.38;3.08;;;23.40;49.00;;;;;;5173054;27;45313;-71
2022/09/01 04:06:11;;;;;;;3.28;2.97;;;23.40;49.00;;;;;;5172606;27;45285;-72
2022/09/01 04:08:38;;;;;;;3.15;2.85;;;23.40;49.10;;;;;;5172299;27;45185;-72
2022/09/01 04:11:12;;;;;;;3.13;2.92;;;23.40;49.10;;;;;;5172811;27;45293;-72
2022/09/01 04:13:40;;;;;;;3.40;3.05;;;23.30;49.60;;;;;;5172762;27;45583;-72
2022/09/01 04:16:09;;;;;;;4.47;3.10;;;23.30;49.00;;;;;;5172378;27;45301;-72
2022/09/01 04:18:38;;;;;;;2.88;2.67;;;23.30;49.10;;;;;;5172376;27;45195;-71
2022/09/01 04:21:06;;;;;;;3.17;2.97;;;23.30;49.10;;;;;;5152599;27;45519;-71
2022/09/01 04:23:35;;;;;;;3.40;3.10;;;23.30;49.00;;;;;;5151773;27;45348;-71
2022/09/01 04:26:07;;;;;;;3.60;3.20;;;23.30;49.00;;;;;;5150997;27;47321;-71
2022/09/01 04:28:36;;;;;;;4.30;2.80;;;23.30;49.10;;;;;;5150960;27;45349;-71
2022/09/01 04:31:06;;;;;;;3.35;3.05;;;23.30;49.10;;;;;;5163673;27;45146;-71
2022/09/01 04:33:35;;;;;;;3.20;2.90;;;23.20;49.00;;;;;;5172061;27;45293;-71
2022/09/01 04:36:04;;;;;;;3.15;2.85;;;23.20;49.00;;;;;;5171791;27;45452;-71
2022/09/01 04:38:34;;;;;;;3.05;2.85;;;23.20;49.00;;;;;;5171608;27;45320;-71
2022/09/01 04:41:05;;;;;;;3.38;3.08;;;23.20;49.60;;;;;;5172003;27;45153;-71
2022/09/01 04:43:32;;;;;;;3.63;2.65;;;23.20;49.00;;;;;;5172139;27;45236;-71
2022/09/01 04:45:59;;;;;;;3.20;2.90;;;23.20;49.10;;;;;;5171715;27;45362;-71
2022/09/01 04:48:25;;;;;;;3.40;3.10;;;23.20;49.10;;;;;;5171520;27;45225;-71
2022/09/01 04:50:55;;;;;;;4.00;3.33;;;23.20;49.10;;;;;;5171913;27;45235;-71
2022/09/01 04:53:23;;;;;;;3.08;2.80;;;23.20;49.00;;;;;;5172027;27;45294;-71
2022/09/01 04:55:52;;;;;;;3.30;3.00;;;23.20;49.00;;;;;;5171025;27;45364;-71
2022/09/01 04:58:20;;;;;;;3.20;2.90;;;23.20;49.10;;;;;;5171054;27;45179;-71
2022/09/01 05:00:50;;;;;;;3.00;2.80;;;23.10;49.00;;;;;;5171891;27;45324;-71
2022/09/01 05:03:20;;;;;;;3.08;2.88;;;23.10;49.10;;;;;;5171720;27;45171;-72
2022/09/01 05:05:47;;;;;;;3.25;2.90;;;23.10;49.00;;;;;;5171326;27;45727;-72
2022/09/01 05:08:16;;;;;;;3.30;3.00;;;23.10;49.10;;;;;;5171279;27;45355;-71
2022/09/01 05:10:46;;;;;;;3.90;3.22;;;23.10;49.10;;;;;;5171464;27;45199;-72
2022/09/01 05:13:16;;;;;;;3.25;2.97;;;23.10;49.10;;;;;;5171648;27;45398;-72
2022/09/01 05:15:45;;;;;;;2.90;2.67;;;23.10;49.10;;;;;;5171146;27;45197;-72
2022/09/01 05:18:14;;;;;;;2.97;2.75;;;23.10;49.20;;;;;;5171248;27;45253;-72
2022/09/01 05:20:41;;;;;;;3.15;2.90;;;23.10;49.20;;;;;;5154841;27;45179;-72
2022/09/01 05:23:11;;;;;;;3.88;2.90;;;23.10;49.20;;;;;;5151923;27;45176;-71
2022/09/01 05:25:40;;;;;;;2.95;2.75;;;23.10;49.30;;;;;;5150006;27;46502;-71
2022/09/01 05:28:10;;;;;;;2.90;2.70;;;23.10;49.30;;;;;;5150076;27;45202;-72
2022/09/01 05:30:38;;;;;;;2.90;2.70;;;23.00;49.20;;;;;;5159573;27;45434;-72
2022/09/01 05:33:10;;;;;;;3.28;2.70;;;23.00;49.20;;;;;;5171198;27;45435;-71
2022/09/01 05:35:39;;;;;;;3.08;2.88;;;23.00;49.20;;;;;;5170565;27;45584;-72
2022/09/01 05:38:09;;;;;;;2.88;2.67;;;23.00;49.20;;;;;;5170678;27;45228;-72
2022/09/01 05:40:40;;;;;;;4.13;3.10;;;23.00;49.30;;;;;;5171225;27;45427;-72
2022/09/01 05:43:11;;;;;;;3.20;2.90;;;23.00;49.30;;;;;;5171426;27;45156;-72
2022/09/01 05:45:41;;;;;;;2.85;2.60;;;23.00;49.30;;;;;;5170737;27;46661;-71
2022/09/01 05:48:09;;;;;;;3.75;2.90;;;23.00;49.40;;;;;;5171052;27;45193;-72
2022/09/01 05:50:36;;;;;;;3.00;2.70;;;23.00;49.30;;;;;;5170896;27;45194;-71
2022/09/01 05:53:14;;;;;;;3.58;3.28;;;23.00;49.40;;;;;;5171103;27;45349;-71
2022/09/01 05:55:43;;;;;;;3.25;2.80;;;23.00;50.10;;;;;;5170197;27;46981;-71
2022/09/01 05:58:12;;;;;;;3.83;2.92;;;23.00;49.40;;;;;;5170274;27;45192;-72
2022/09/01 06:00:41;;;;;;;2.97;2.75;;;23.00;49.40;;;;;;5169970;27;45297;-71
2022/09/01 06:03:09;;;;;;;3.10;2.42;;;23.00;49.40;;;;;;5170366;27;45178;-72
2022/09/01 06:05:36;;;;;;;4.50;2.85;;;23.00;49.50;;;;;;5170456;27;46590;-71
2022/09/01 06:08:04;;;;;;;3.00;2.80;;;23.00;49.50;;;;;;5170309;27;45313;-72
2022/09/01 06:10:31;;;;;;;3.17;2.88;;;23.00;49.40;;;;;;5170297;27;45220;-71
2022/09/01 06:13:01;;;;;;;3.80;3.38;;;23.00;49.50;;;;;;5170580;27;45255;-71
2022/09/01 06:15:29;;;;;;;3.15;2.85;;;22.90;49.50;;;;;;5170020;27;45619;-72
2022/09/01 06:17:56;;;;;;;3.10;2.90;;;22.90;49.50;;;;;;5170145;27;45223;-71
2022/09/01 06:20:23;;;;;;;3.78;2.95;;;22.90;49.60;;;;;;5156183;27;45417;-71
2022/09/01 06:22:51;;;;;;;2.90;2.70;;;22.90;49.60;;;;;;5151056;27;45198;-71
2022/09/01 06:25:18;;;;;;;3.00;2.80;;;22.90;49.60;;;;;;5148958;27;45719;-71
2022/09/01 06:27:46;;;;;;;2.70;2.50;;;22.90;49.50;;;;;;5148968;27;45367;-71
2022/09/01 06:30:15;;;;;;;2.80;2.60;;;23.00;49.60;;;;;;5154180;27;45258;-71
2022/09/01 06:32:43;;;;;;;2.80;2.60;;;23.00;49.60;;;;;;5170326;27;45392;-72
2022/09/01 06:35:11;;;;;;;3.28;2.85;;;23.00;49.60;;;;;;5169626;27;45411;-71
2022/09/01 06:37:38;;;;;;;4.30;3.15;;;23.00;49.60;;;;;;5169681;27;45179;-72
2022/09/01 06:40:09;;;;;;;3.63;3.33;;;23.00;49.60;;;;;;5169798;27;45272;-71
2022/09/01 06:42:36;;;;;;;3.55;3.08;;;23.00;49.60;;;;;;5170107;27;45294;-71
2022/09/01 06:45:09;;;;;;;4.85;4.35;;;23.00;49.70;;;;;;5169963;27;47442;-71
2022/09/01 06:47:36;;;;;;;4.68;4.13;;;23.00;51.20;;;;;;5168728;27;45238;-71
2022/09/01 06:50:07;;;;;;;3.88;3.50;;;23.00;51.00;;;;;;5169652;27;45271;-71
2022/09/01 06:52:34;;;;;;;4.35;3.92;;;23.00;50.80;;;;;;5169356;27;45301;-72
2022/09/01 06:55:01;;;;;;;5.20;4.60;;;23.00;50.60;;;;;;5169599;27;45736;-72
2022/09/01 06:57:28;;;;;;;5.72;5.13;;;23.00;50.90;;;;;;5169884;27;45205;-72
2022/09/01 06:59:55;;;;;;;5.32;4.55;;;23.00;51.70;;;;;;5169777;27;45186;-72
2022/09/01 07:02:22;;;;;;;4.88;4.13;;;23.00;51.30;;;;;;5169686;27;45481;-71
2022/09/01 07:04:52;;;;;;;5.97;4.20;;;23.10;51.10;;;;;;5169565;27;46249;-71
2022/09/01 07:07:21;;;;;;;4.68;3.95;;;23.10;51.00;;;;;;5169440;27;45168;-71
2022/09/01 07:09:48;;;;;;;4.57;4.18;;;23.10;51.00;;;;;;5169351;27;45349;-71
2022/09/01 07:12:18;;;;;;;6.90;4.97;;;23.10;50.80;;;;;;5169521;27;45520;-71
2022/09/01 07:14:48;;;;;;;7.47;4.72;;;23.10;51.10;;;;;;5169020;27;46816;-71
2022/09/01 07:17:15;;;;;;;7.60;6.72;;;23.10;51.10;;;;;;5169277;27;45352;-71
2022/09/01 07:19:41;;;;;;;7.72;5.68;;;23.10;52.20;;;;;;5161597;27;45276;-71
2022/09/01 07:22:08;;;;;;;7.95;6.20;;;23.10;52.20;;;;;;5150199;27;45272;-71
2022/09/01 07:24:38;;;;;;;9.55;7.43;;;23.10;52.10;;;;;;5148580;27;46749;-71
2022/09/01 07:27:05;;;;;;;10.68;6.80;;;23.00;55.20;;;;;;5148168;27;45228;-71
2022/09/01 07:29:34;;;;;;;7.85;7.05;;;23.00;54.80;;;;;;5148405;27;45179;-71
2022/09/01 07:32:01;;;;;;;8.07;7.28;;;22.90;56.10;;;;;;5169400;27;45662;-71
2022/09/01 07:34:28;;;;;;;9.52;6.55;;;22.90;56.30;;;;;;5168776;27;46706;-71
2022/09/01 07:36:58;;;;;;;7.05;6.32;;;22.80;56.40;;;;;;5169075;27;45335;-72
2022/09/01 07:39:25;;;;;;;7.57;6.75;;;22.80;56.00;;;;;;5168945;27;45279;-71
2022/09/01 07:41:54;;;;;;;8.73;5.97;;;22.80;56.80;;;;;;5166837;27;45270;-71
2022/09/01 07:44:21;;;;;;;9.30;6.10;;;22.80;56.90;;;;;;5168855;27;45227;-71
2022/09/01 07:46:51;;;;;;;7.38;5.85;;;22.80;56.60;;;;;;5168857;27;45257;-71
2022/09/01 07:49:18;;;;;;;7.22;5.88;;;22.70;56.10;;;;;;5168935;27;45313;-71
2022/09/01 07:51:50;;;;;;;7.18;5.47;;;22.70;56.20;;;;;;5169063;27;45399;-71
2022/09/01 07:54:20;;;;;;;6.68;5.50;;;22.70;56.50;;;;;;5168698;27;45198;-71
2022/09/01 07:56:47;;;;;;;9.48;6.50;;;22.70;56.80;;;;;;5168802;27;45302;-72
2022/09/01 07:59:17;;;;;;;6.85;6.15;;;22.70;57.70;;;;;;5171753;27;45268;-71
2022/09/01 08:01:46;;;;;;;8.55;6.63;;;22.70;57.70;;;;;;5172383;27;45339;-71
2022/09/01 08:04:14;;;;;;;6.93;6.22;;;22.70;57.60;;;;;;5171918;27;46726;-71
2022/09/01 08:06:41;;;;;;;6.65;5.47;;;22.70;57.70;;;;;;5170307;27;45361;-71
2022/09/01 08:09:09;;;;;;;6.53;5.20;;;22.80;57.60;;;;;;5171108;27;45465;-71
2022/09/01 08:11:36;;;;;;;5.75;4.72;;;22.80;57.40;;;;;;5171767;27;45569;-71
2022/09/01 08:14:03;;;;;;;5.85;5.28;;;22.80;57.40;;;;;;5171797;27;45262;-72
2022/09/01 08:16:31;;;;;;;5.85;5.35;;;22.80;57.30;;;;;;5171626;27;45186;-71
2022/09/01 08:18:58;;;;;;;6.13;4.82;;;22.80;57.00;;;;;;5170313;27;45294;-71
2022/09/01 08:21:25;;;;;;;5.25;4.75;;;22.80;57.30;;;;;;5150988;27;45320;-71
2022/09/01 08:23:53;;;;;;;6.15;5.55;;;22.80;57.40;;;;;;5152259;27;46314;-71
2022/09/01 08:26:21;;;;;;;6.00;5.22;;;22.80;57.20;;;;;;5150689;27;45398;-71
2022/09/01 08:28:48;;;;;;;5.40;4.68;;;22.80;57.30;;;;;;5150492;27;45276;-71
2022/09/01 08:31:16;;;;;;;6.68;4.70;;;22.80;57.60;;;;;;5164901;27;45362;-71
2022/09/01 08:33:46;;;;;;;5.07;4.30;;;22.80;57.20;;;;;;5171268;27;45397;-71
2022/09/01 08:36:13;;;;;;;5.75;4.45;;;22.80;57.10;;;;;;5171593;27;45472;-71
2022/09/01 08:38:40;;;;;;;4.97;4.22;;;22.80;57.00;;;;;;5152889;27;45356;-71
2022/09/01 08:41:15;;;;;;;6.75;4.57;;;22.80;57.20;;;;;;5171843;27;45242;-72
2022/09/01 08:43:48;;;;;;;4.93;4.32;;;22.80;57.30;;;;;;5171795;27;46467;-71
2022/09/01 08:46:19;;;;;;;5.88;4.65;;;22.80;57.50;;;;;;5171568;27;45394;-71
2022/09/01 08:48:49;;;;;;;6.03;5.38;;;22.90;57.30;;;;;;5171914;27;45319;-71
2022/09/01 08:51:20;;;;;;;6.20;4.95;;;22.90;57.50;;;;;;5171572;27;45273;-71
2022/09/01 08:53:49;;;;;;;6.03;5.03;;;22.90;57.60;;;;;;5171440;27;46442;-71
2022/09/01 08:56:17;;;;;;;8.00;5.97;;;22.90;57.60;;;;;;5171431;27;45366;-71
2022/09/01 08:58:43;;;;;;;7.97;6.28;;;22.90;57.70;;;;;;5171379;27;45176;-71
2022/09/01 09:01:16;;;;;;;6.97;6.28;;;22.90;57.60;;;;;;5171849;27;45399;-71
2022/09/01 09:03:45;;;;;;;6.45;5.90;;;22.90;57.50;;;;;;5171200;27;46960;-73
2022/09/01 09:06:17;;;;;;;6.95;6.03;;;23.00;57.50;;;;;;5171341;27;45315;-71
2022/09/01 09:08:55;;;;;;;5.90;5.35;;;23.00;57.60;;;;;;5171953;27;45187;-72
2022/09/01 09:11:50;;;;;;;6.28;5.68;;;23.00;57.40;;;;;;5170702;27;45556;-72
2022/09/01 09:14:23;;;;;;;8.82;5.60;;;23.10;57.40;;;;;;5171088;27;46673;-71
2022/09/01 09:16:50;;;;;;;7.88;5.35;;;23.10;57.20;;;;;;5171563;27;45227;-72
2022/09/01 09:19:21;;;;;;;6.43;5.40;;;23.00;57.10;;;;;;5167069;27;45239;-72
2022/09/01 09:21:49;;;;;;;6.78;5.70;;;23.10;57.00;;;;;;5150886;27;45525;-71
2022/09/01 09:24:20;;;;;;;5.93;5.32;;;23.10;56.90;;;;;;5150108;27;46230;-72
2022/09/01 09:26:49;;;;;;;7.15;5.82;;;23.10;57.00;;;;;;5150099;27;45294;-72
2022/09/01 09:29:15;;;;;;;6.72;5.45;;;23.20;57.10;;;;;;5149828;27;45208;-71
2022/09/01 09:31:47;;;;;;;7.57;6.43;;;23.20;56.80;;;;;;5168349;27;45437;-72
2022/09/01 09:34:28;;;;;;;6.90;6.20;;;23.20;56.80;;;;;;5170807;27;45256;-72
2022/09/01 09:37:16;;;;;;;7.07;5.72;;;23.20;56.90;;;;;;5170787;27;45324;-71
2022/09/01 09:39:43;;;;;;;7.13;6.43;;;23.30;56.80;;;;;;5170948;27;45259;-71
2022/09/01 09:42:11;;;;;;;6.75;6.05;;;23.30;56.90;;;;;;5170851;27;45398;-71
2022/09/01 09:44:43;;;;;;;6.72;5.90;;;23.30;56.70;;;;;;5170580;27;47034;-71
2022/09/01 09:47:10;;;;;;;9.25;5.90;;;23.30;56.50;;;;;;5170869;27;45172;-71
2022/09/01 09:49:37;;;;;;;6.22;5.63;;;23.40;56.50;;;;;;5170593;27;45169;-71
2022/09/01 09:52:16;;;;;;;8.65;6.47;;;23.40;56.30;;;;;;5170686;27;45337;-70
2022/09/01 09:55:02;;;;;;;7.30;6.60;;;23.40;56.40;;;;;;5170145;27;46620;-71
2022/09/01 09:57:29;;;;;;;8.00;5.45;;;23.40;56.60;;;;;;5170644;27;45222;-71
2022/09/01 09:59:59;;;;;;;6.47;5.88;;;23.40;56.20;;;;;;5170442;27;45188;-71
2022/09/01 10:02:30;;;;;;;6.50;5.32;;;23.40;56.40;;;;;;5170773;27;45447;-71
2022/09/01 10:04:57;;;;;;;7.15;5.28;;;23.50;56.20;;;;;;5170831;27;46576;-72
2022/09/01 10:07:29;;;;;;;5.38;4.88;;;23.50;56.00;;;;;;5170486;27;45313;-72
2022/09/01 10:09:57;;;;;;;5.25;4.65;;;23.50;55.80;;;;;;5170577;27;45219;-71
2022/09/01 10:12:25;;;;;;;5.18;4.68;;;23.50;55.60;;;;;;5170235;27;45306;-72
2022/09/01 10:14:53;;;;;;;6.68;5.13;;;23.60;55.50;;;;;;5169673;27;47172;-71
2022/09/01 10:17:23;;;;;;;6.15;5.35;;;23.60;55.70;;;;;;5170110;27;45189;-71
2022/09/01 10:19:53;;;;;;;5.80;5.20;;;23.70;55.70;;;;;;5161023;27;45331;-71
2022/09/01 10:22:19;;;;;;;5.25;4.75;;;23.70;55.40;;;;;;5149295;27;45385;-71
2022/09/01 10:24:48;;;;;;;4.97;4.55;;;23.70;55.30;;;;;;5148798;27;46800;-71
2022/09/01 10:27:17;;;;;;;5.20;4.70;;;23.70;55.30;;;;;;5149599;27;45388;-71
2022/09/01 10:29:46;;;;;;;6.30;4.40;;;23.80;55.20;;;;;;5148526;27;45248;-72
2022/09/01 10:32:15;;;;;;;5.43;4.82;;;23.80;54.90;;;;;;5172855;27;45204;-72
2022/09/01 10:34:42;;;;;;;4.50;4.10;;;23.80;55.00;;;;;;5170967;27;45472;-71
2022/09/01 10:37:09;;;;;;;4.55;4.15;;;23.90;54.50;;;;;;5169855;27;45282;-71
2022/09/01 10:39:36;;;;;;;5.88;3.90;;;23.90;54.90;;;;;;5169836;27;45267;-72
2022/09/01 10:42:07;;;;;;;4.38;4.07;;;24.00;54.80;;;;;;5169445;27;45514;-72
2022/09/01 10:44:35;;;;;;;3.88;3.40;;;24.00;53.90;;;;;;5168604;27;45457;-71
2022/09/01 10:47:02;;;;;;;4.25;3.85;;;24.00;53.40;;;;;;5170255;27;45280;-71
2022/09/01 10:50:00;;;;;;;4.10;3.70;;;24.10;53.70;;;;;;5170156;27;45332;-72
2022/09/01 10:52:53;;;;;;;3.30;3.00;;;24.10;53.00;;;;;;5167104;27;45495;-72
2022/09/01 10:55:21;;;;;;;3.28;3.08;;;24.10;52.70;;;;;;5169772;27;45299;-72
2022/09/01 10:57:53;;;;;;;3.97;3.33;;;24.20;52.80;;;;;;5169864;27;45232;-71
2022/09/01 11:00:48;;;;;;;3.95;3.47;;;24.20;52.50;;;;;;5169801;27;45318;-72
2022/09/01 11:03:58;;;;;;;3.90;3.33;;;24.30;52.90;;;;;;5168758;27;45397;-72
2022/09/01 11:06:45;;;;;;;3.97;3.55;;;24.40;52.30;;;;;;5169521;27;45292;-72
2022/09/01 11:09:30;;;;;;;3.33;3.03;;;24.40;52.20;;;;;;5169659;27;45202;-72
2022/09/01 11:12:09;;;;;;;3.55;3.22;;;24.50;52.10;;;;;;5168068;27;45198;-72
2022/09/01 11:14:46;;;;;;;3.70;3.40;;;24.60;52.30;;;;;;5169237;27;45482;-72
2022/09/01 11:17:15;;;;;;;3.67;3.38;;;24.70;52.00;;;;;;5168928;27;45424;-73
2022/09/01 11:19:43;;;;;;;4.18;2.97;;;24.80;51.90;;;;;;5161015;27;45488;-72
2022/09/01 11:22:27;;;;;;;3.67;2.92;;;24.90;51.80;;;;;;5149915;27;44838;-73
2022/09/01 11:25:37;;;;;;;3.58;3.28;;;25.00;51.60;;;;;;5148488;27;45169;-72
2022/09/01 11:28:07;;;;;;;5.10;3.03;;;25.00;51.60;;;;;;5148672;27;45297;-72
2022/09/01 11:30:54;;;;;;;3.67;3.20;;;25.10;51.50;;;;;;5148337;27;45270;-72
2022/09/01 11:33:39;;;;;;;3.38;3.08;;;25.20;51.50;;;;;;5150079;27;45311;-72
2022/09/01 11:36:07;;;;;;;3.05;2.85;;;25.30;51.50;;;;;;5152241;27;45406;-72
2022/09/01 11:38:50;;;;;;;3.35;3.05;;;25.30;51.40;;;;;;5138574;27;45521;-73
2022/09/01 11:41:24;;;;;;;3.78;2.72;;;25.30;51.20;;;;;;5131447;27;45248;-72
2022/09/01 11:43:56;;;;;;;3.70;3.30;;;25.40;51.30;;;;;;5131195;27;45528;-72
2022/09/01 11:46:27;;;;;;;3.70;3.15;;;25.40;51.30;;;;;;5131205;27;45396;-72
2022/09/01 11:48:54;;;;;;;3.38;3.10;;;25.50;51.40;;;;;;5130897;27;45436;-72
2022/09/01 11:51:21;;;;;;;3.25;2.95;;;25.50;51.20;;;;;;5130818;27;45156;-72
2022/09/01 11:53:49;;;;;;;3.33;3.03;;;25.60;51.40;;;;;;5130853;27;45192;-73
2022/09/01 11:56:16;;;;;;;2.88;2.67;;;25.60;51.20;;;;;;5131245;27;45326;-73
2022/09/01 11:58:43;;;;;;;3.40;3.10;;;25.70;51.20;;;;;;5130138;27;46381;-72
2022/09/01 12:01:15;;;;;;;3.40;3.10;;;25.70;51.10;;;;;;5130835;27;45243;-73
2022/09/01 12:03:44;;;;;;;3.15;2.85;;;25.80;51.20;;;;;;5130866;27;45295;-72
2022/09/01 12:06:12;;;;;;;2.88;2.67;;;25.80;51.20;;;;;;5130999;27;45478;-73
2022/09/01 12:08:40;;;;;;;3.33;3.03;;;25.90;51.10;;;;;;5130620;27;46726;-72
2022/09/01 12:11:07;;;;;;;2.85;2.65;;;25.90;50.90;;;;;;5130676;27;45306;-73
2022/09/01 12:13:34;;;;;;;2.70;2.50;;;26.00;51.60;;;;;;5130691;27;45220;-72
2022/09/01 12:16:02;;;;;;;2.92;2.72;;;26.00;50.90;;;;;;5130888;27;45190;-72
2022/09/01 12:18:30;;;;;;;3.42;2.80;;;26.10;50.70;;;;;;5130529;27;46472;-72
2022/09/01 12:21:00;;;;;;;2.90;2.60;;;26.10;50.60;;;;;;5111682;27;45409;-72
2022/09/01 12:23:28;;;;;;;2.85;2.65;;;26.20;50.60;;;;;;5111031;27;45209;-72
2022/09/01 12:25:56;;;;;;;3.30;2.70;;;26.20;50.70;;;;;;5110471;27;45354;-72
2022/09/01 12:28:23;;;;;;;2.65;2.45;;;26.20;50.60;;;;;;5109539;27;45350;-72
2022/09/01 12:30:50;;;;;;;2.85;2.40;;;26.30;50.40;;;;;;5119699;27;45245;-72
2022/09/01 12:33:18;;;;;;;2.80;2.60;;;26.30;50.40;;;;;;5130388;27;45273;-72
2022/09/01 12:35:45;;;;;;;2.70;2.50;;;26.40;50.40;;;;;;5130369;27;45451;-72
2022/09/01 12:38:30;;;;;;;2.90;2.70;;;26.40;50.20;;;;;;5139704;27;45367;-72
2022/09/01 12:40:57;;;;;;;2.92;2.72;;;26.50;50.20;;;;;;5150849;27;45276;-72
2022/09/01 12:43:31;;;;;;;2.80;2.60;;;26.60;50.10;;;;;;5148349;27;45280;-72
2022/09/01 12:46:00;;;;;;;2.65;2.45;;;26.50;49.90;;;;;;5150052;27;45431;-72
2022/09/01 12:48:29;;;;;;;3.13;2.92;;;26.50;50.10;;;;;;5150729;27;45473;-72
2022/09/01 12:50:57;;;;;;;2.40;2.25;;;26.50;50.30;;;;;;5151014;27;45351;-72
2022/09/01 12:53:27;;;;;;;2.70;2.40;;;26.50;50.20;;;;;;5150865;27;45305;-72
2022/09/01 12:56:06;;;;;;;2.70;2.50;;;26.60;50.10;;;;;;5150829;27;45566;-71
2022/09/01 12:58:33;;;;;;;2.40;2.30;;;26.70;50.00;;;;;;5150842;27;46817;-72
2022/09/01 13:01:03;;;;;;;2.92;2.72;;;26.70;49.90;;;;;;5150170;27;45412;-71
2022/09/01 13:03:30;;;;;;;2.70;2.50;;;26.80;49.80;;;;;;5150102;27;45235;-71